sensor_id;sensor_type;location;lat;lon;timestamp;pressure;altitude;pressure_sealevel;temperature;humidity
37710;BME280;60223;34.854;-92.408;2022-12-18T00:01:29;101040.90;;;21.25;23.53
37710;BME280;60223;34.854;-92.408;2022-12-18T00:03:52;101040.05;;;20.96;23.52
37710;BME280;60223;34.854;-92.408;2022-12-18T00:06:21;101037.83;;;21.06;23.54
37710;BME280;60223;34.854;-92.408;2022-12-18T00:08:45;101036.44;;;21.05;23.58
37710;BME280;60223;34.854;-92.408;2022-12-18T00:11:13;101039.90;;;20.72;23.79
37710;BME280;60223;34.854;-92.408;2022-12-18T00:13:36;101044.32;;;22.13;22.72
37710;BME280;60223;34.854;-92.408;2022-12-18T00:16:06;101044.88;;;21.82;23.01
37710;BME280;60223;34.854;-92.408;2022-12-18T00:18:27;101047.65;;;21.97;23.04
37710;BME280;60223;34.854;-92.408;2022-12-18T00:20:52;101047.08;;;22.52;22.56
37710;BME280;60223;34.854;-92.408;2022-12-18T00:23:18;101051.15;;;21.90;22.86
37710;BME280;60223;34.854;-92.408;2022-12-18T00:25:44;101051.92;;;21.90;22.87
37710;BME280;60223;34.854;-92.408;2022-12-18T00:28:10;101058.50;;;21.95;23.00
37710;BME280;60223;34.854;-92.408;2022-12-18T00:30:36;101063.20;;;21.80;22.96
37710;BME280;60223;34.854;-92.408;2022-12-18T00:33:02;101065.79;;;21.76;23.01
37710;BME280;60223;34.854;-92.408;2022-12-18T00:35:28;101070.57;;;21.57;23.15
37710;BME280;60223;34.854;-92.408;2022-12-18T00:37:52;101069.37;;;21.43;23.10
37710;BME280;60223;34.854;-92.408;2022-12-18T00:40:19;101070.51;;;21.86;23.15
37710;BME280;60223;34.854;-92.408;2022-12-18T00:42:44;101069.88;;;21.83;23.20
37710;BME280;60223;34.854;-92.408;2022-12-18T00:45:10;101070.77;;;21.85;23.17
37710;BME280;60223;34.854;-92.408;2022-12-18T00:47:36;101073.54;;;21.40;23.35
37710;BME280;60223;34.854;-92.408;2022-12-18T00:50:02;101073.63;;;21.51;23.43
37710;BME280;60223;34.854;-92.408;2022-12-18T00:52:27;101076.77;;;21.51;23.44
37710;BME280;60223;34.854;-92.408;2022-12-18T00:54:53;101083.08;;;21.36;23.55
37710;BME280;60223;34.854;-92.408;2022-12-18T00:57:18;101080.53;;;21.33;23.53
37710;BME280;60223;34.854;-92.408;2022-12-18T00:59:45;101087.28;;;21.33;23.47
37710;BME280;60223;34.854;-92.408;2022-12-18T01:02:13;101087.04;;;21.06;23.63
37710;BME280;60223;34.854;-92.408;2022-12-18T01:04:37;101089.39;;;20.92;23.71
37710;BME280;60223;34.854;-92.408;2022-12-18T01:07:02;101087.92;;;20.64;23.91
37710;BME280;60223;34.854;-92.408;2022-12-18T01:09:25;101093.62;;;20.59;23.89
37710;BME280;60223;34.854;-92.408;2022-12-18T01:11:53;101096.61;;;21.81;22.90
37710;BME280;60223;34.854;-92.408;2022-12-18T01:14:19;101103.91;;;21.97;22.88
37710;BME280;60223;34.854;-92.408;2022-12-18T01:16:45;101102.55;;;21.79;23.06
37710;BME280;60223;34.854;-92.408;2022-12-18T01:19:11;101102.74;;;21.79;23.06
37710;BME280;60223;34.854;-92.408;2022-12-18T01:21:37;101109.15;;;22.08;22.87
37710;BME280;60223;34.854;-92.408;2022-12-18T01:24:02;101110.33;;;22.11;22.88
37710;BME280;60223;34.854;-92.408;2022-12-18T01:26:29;101109.09;;;21.83;23.08
37710;BME280;60223;34.854;-92.408;2022-12-18T01:28:54;101111.81;;;21.64;23.08
37710;BME280;60223;34.854;-92.408;2022-12-18T01:31:23;101110.68;;;21.55;23.13
37710;BME280;60223;34.854;-92.408;2022-12-18T01:33:48;101114.85;;;21.35;23.11
37710;BME280;60223;34.854;-92.408;2022-12-18T01:36:15;101114.61;;;21.75;23.15
37710;BME280;60223;34.854;-92.408;2022-12-18T01:38:35;101121.27;;;21.22;23.26
37710;BME280;60223;34.854;-92.408;2022-12-18T01:41:02;101126.23;;;21.44;23.25
37710;BME280;60223;34.854;-92.408;2022-12-18T01:43:41;101131.35;;;21.08;23.37
37710;BME280;60223;34.854;-92.408;2022-12-18T01:45:53;101135.06;;;21.02;23.41
37710;BME280;60223;34.854;-92.408;2022-12-18T01:48:19;101140.06;;;21.45;23.45
37710;BME280;60223;34.854;-92.408;2022-12-18T01:50:46;101141.46;;;21.33;23.55
37710;BME280;60223;34.854;-92.408;2022-12-18T01:53:15;101145.58;;;21.39;23.50
37710;BME280;60223;34.854;-92.408;2022-12-18T01:55:40;101147.75;;;21.13;23.51
37710;BME280;60223;34.854;-92.408;2022-12-18T01:58:03;101146.32;;;21.09;23.50
37710;BME280;60223;34.854;-92.408;2022-12-18T02:00:29;101151.72;;;20.71;23.79
37710;BME280;60223;34.854;-92.408;2022-12-18T02:02:53;101158.97;;;19.76;24.50
37710;BME280;60223;34.854;-92.408;2022-12-18T02:05:23;101159.43;;;21.55;23.24
37710;BME280;60223;34.854;-92.408;2022-12-18T02:07:54;101163.60;;;21.90;22.93
37710;BME280;60223;34.854;-92.408;2022-12-18T02:10:15;101166.18;;;21.61;23.04
37710;BME280;60223;34.854;-92.408;2022-12-18T02:12:43;101171.62;;;21.65;23.08
37710;BME280;60223;34.854;-92.408;2022-12-18T02:15:05;101176.29;;;21.86;22.83
37710;BME280;60223;34.854;-92.408;2022-12-18T02:17:34;101177.00;;;21.99;22.89
37710;BME280;60223;34.854;-92.408;2022-12-18T02:20:05;101179.36;;;21.73;23.03
37710;BME280;60223;34.854;-92.408;2022-12-18T02:22:29;101184.59;;;21.82;23.01
37710;BME280;60223;34.854;-92.408;2022-12-18T02:46:39;101209.79;;;21.26;23.31
37710;BME280;60223;34.854;-92.408;2022-12-18T02:49:10;101208.76;;;20.91;23.52
37710;BME280;60223;34.854;-92.408;2022-12-18T02:51:33;101214.33;;;20.92;23.49
37710;BME280;60223;34.854;-92.408;2022-12-18T02:53:56;101217.05;;;20.70;23.66
37710;BME280;60223;34.854;-92.408;2022-12-18T02:56:23;101220.21;;;20.76;23.77
37710;BME280;60223;34.854;-92.408;2022-12-18T02:58:52;101223.85;;;21.86;22.80
37710;BME280;60223;34.854;-92.408;2022-12-18T03:01:15;101222.87;;;21.91;22.87
37710;BME280;60223;34.854;-92.408;2022-12-18T03:03:40;101225.77;;;21.91;22.92
37710;BME280;60223;34.854;-92.408;2022-12-18T03:06:07;101230.96;;;22.39;22.39
37710;BME280;60223;34.854;-92.408;2022-12-18T03:08:31;101233.97;;;21.62;22.98
37710;BME280;60223;34.854;-92.408;2022-12-18T03:10:58;101236.93;;;21.90;22.95
37710;BME280;60223;34.854;-92.408;2022-12-18T03:13:25;101240.60;;;21.68;22.95
37710;BME280;60223;34.854;-92.408;2022-12-18T03:15:47;101244.45;;;21.83;22.86
37710;BME280;60223;34.854;-92.408;2022-12-18T03:18:16;101247.05;;;21.49;23.07
37710;BME280;60223;34.854;-92.408;2022-12-18T03:20:39;101247.63;;;21.65;22.94
37710;BME280;60223;34.854;-92.408;2022-12-18T03:23:08;101246.26;;;21.93;22.94
37710;BME280;60223;34.854;-92.408;2022-12-18T03:25:30;101245.47;;;21.12;23.00
37710;BME280;60223;34.854;-92.408;2022-12-18T03:27:58;101247.40;;;21.64;22.96
37710;BME280;60223;34.854;-92.408;2022-12-18T03:30:18;101255.09;;;21.53;23.02
37710;BME280;60223;34.854;-92.408;2022-12-18T03:32:49;101262.51;;;21.48;23.04
37710;BME280;60223;34.854;-92.408;2022-12-18T03:35:14;101265.31;;;21.19;23.04
37710;BME280;60223;34.854;-92.408;2022-12-18T03:37:38;101266.22;;;20.90;23.36
37710;BME280;60223;34.854;-92.408;2022-12-18T03:40:02;101268.25;;;20.56;23.40
37710;BME280;60223;34.854;-92.408;2022-12-18T03:42:32;101272.96;;;20.63;23.56
37710;BME280;60223;34.854;-92.408;2022-12-18T03:44:58;101276.42;;;20.18;24.27
37710;BME280;60223;34.854;-92.408;2022-12-18T03:47:26;101274.64;;;21.91;22.58
37710;BME280;60223;34.854;-92.408;2022-12-18T03:49:53;101280.32;;;21.54;22.99
37710;BME280;60223;34.854;-92.408;2022-12-18T03:52:14;101286.39;;;21.50;22.88
37710;BME280;60223;34.854;-92.408;2022-12-18T03:54:39;101293.81;;;22.08;22.63
37710;BME280;60223;34.854;-92.408;2022-12-18T03:57:09;101296.13;;;21.87;22.81
37710;BME280;60223;34.854;-92.408;2022-12-18T03:59:30;101300.98;;;21.57;22.85
37710;BME280;60223;34.854;-92.408;2022-12-18T04:01:56;101302.36;;;21.51;22.88
37710;BME280;60223;34.854;-92.408;2022-12-18T04:04:19;101302.11;;;21.78;22.89
37710;BME280;60223;34.854;-92.408;2022-12-18T04:06:47;101306.11;;;21.64;22.77
37710;BME280;60223;34.854;-92.408;2022-12-18T04:09:12;101306.32;;;21.35;22.78
37710;BME280;60223;34.854;-92.408;2022-12-18T04:11:38;101307.61;;;21.58;22.80
37710;BME280;60223;34.854;-92.408;2022-12-18T04:14:04;101308.77;;;21.79;22.65
37710;BME280;60223;34.854;-92.408;2022-12-18T04:16:29;101310.17;;;21.85;22.59
37710;BME280;60223;34.854;-92.408;2022-12-18T04:18:55;101310.20;;;21.62;22.73
37710;BME280;60223;34.854;-92.408;2022-12-18T04:31:04;101323.80;;;18.70;24.85
37710;BME280;60223;34.854;-92.408;2022-12-18T04:33:28;101329.74;;;21.05;23.08
37710;BME280;60223;34.854;-92.408;2022-12-18T04:35:55;101331.40;;;21.45;22.81
37710;BME280;60223;34.854;-92.408;2022-12-18T04:38:21;101332.17;;;21.76;22.65
37710;BME280;60223;34.854;-92.408;2022-12-18T04:40:46;101337.41;;;22.00;22.70
37710;BME280;60223;34.854;-92.408;2022-12-18T04:43:13;101335.58;;;21.55;22.44
37710;BME280;60223;34.854;-92.408;2022-12-18T04:45:38;101335.63;;;21.67;22.59
37710;BME280;60223;34.854;-92.408;2022-12-18T04:48:04;101341.27;;;21.48;22.74
37710;BME280;60223;34.854;-92.408;2022-12-18T04:50:31;101341.54;;;21.54;22.67
37710;BME280;60223;34.854;-92.408;2022-12-18T04:52:55;101341.14;;;21.61;22.64
37710;BME280;60223;34.854;-92.408;2022-12-18T04:55:24;101341.51;;;21.59;22.61
37710;BME280;60223;34.854;-92.408;2022-12-18T04:57:44;101343.18;;;21.72;22.50
37710;BME280;60223;34.854;-92.408;2022-12-18T05:00:13;101348.52;;;21.65;22.52
37710;BME280;60223;34.854;-92.408;2022-12-18T05:02:39;101348.33;;;21.59;22.37
37710;BME280;60223;34.854;-92.408;2022-12-18T05:05:05;101348.70;;;21.53;22.56
37710;BME280;60223;34.854;-92.408;2022-12-18T05:07:30;101347.83;;;21.56;22.52
37710;BME280;60223;34.854;-92.408;2022-12-18T05:09:56;101352.21;;;21.55;22.67
37710;BME280;60223;34.854;-92.408;2022-12-18T05:12:22;101352.52;;;21.13;22.96
37710;BME280;60223;34.854;-92.408;2022-12-18T05:14:47;101352.48;;;20.87;22.94
37710;BME280;60223;34.854;-92.408;2022-12-18T05:17:13;101350.10;;;19.34;24.32
37710;BME280;60223;34.854;-92.408;2022-12-18T05:19:39;101344.32;;;22.02;22.33
37710;BME280;60223;34.854;-92.408;2022-12-18T05:22:05;101341.51;;;21.65;22.47
37710;BME280;60223;34.854;-92.408;2022-12-18T05:24:30;101341.94;;;21.45;22.72
37710;BME280;60223;34.854;-92.408;2022-12-18T05:26:56;101342.06;;;21.75;22.35
37710;BME280;60223;34.854;-92.408;2022-12-18T05:29:22;101346.24;;;21.43;22.59
37710;BME280;60223;34.854;-92.408;2022-12-18T05:31:46;101350.58;;;21.43;22.57
37710;BME280;60223;34.854;-92.408;2022-12-18T05:34:13;101354.20;;;21.52;22.49
37710;BME280;60223;34.854;-92.408;2022-12-18T05:36:39;101357.32;;;21.60;22.42
37710;BME280;60223;34.854;-92.408;2022-12-18T05:39:05;101361.68;;;21.62;22.41
37710;BME280;60223;34.854;-92.408;2022-12-18T05:41:31;101357.47;;;21.57;22.23
37710;BME280;60223;34.854;-92.408;2022-12-18T05:43:56;101358.41;;;21.89;22.14
37710;BME280;60223;34.854;-92.408;2022-12-18T05:46:22;101359.04;;;22.10;22.14
37710;BME280;60223;34.854;-92.408;2022-12-18T05:48:48;101358.33;;;21.76;22.18
37710;BME280;60223;34.854;-92.408;2022-12-18T05:51:13;101367.79;;;21.61;22.26
37710;BME280;60223;34.854;-92.408;2022-12-18T05:53:40;101366.37;;;21.46;22.51
37710;BME280;60223;34.854;-92.408;2022-12-18T05:56:07;101367.46;;;21.21;22.48
37710;BME280;60223;34.854;-92.408;2022-12-18T05:58:31;101367.55;;;21.40;22.49
37710;BME280;60223;34.854;-92.408;2022-12-18T06:00:57;101367.62;;;19.38;24.26
37710;BME280;60223;34.854;-92.408;2022-12-18T06:03:20;101370.21;;;21.38;22.43
37710;BME280;60223;34.854;-92.408;2022-12-18T06:05:48;101371.09;;;21.74;22.25
37710;BME280;60223;34.854;-92.408;2022-12-18T06:08:14;101372.08;;;21.32;22.40
37710;BME280;60223;34.854;-92.408;2022-12-18T06:10:39;101369.06;;;21.39;22.45
37710;BME280;60223;34.854;-92.408;2022-12-18T06:13:05;101358.93;;;22.02;22.13
37710;BME280;60223;34.854;-92.408;2022-12-18T06:15:31;101361.03;;;21.63;22.25
37710;BME280;60223;34.854;-92.408;2022-12-18T06:17:57;101365.94;;;21.46;22.34
37710;BME280;60223;34.854;-92.408;2022-12-18T06:20:23;101368.57;;;21.55;22.27
37710;BME280;60223;34.854;-92.408;2022-12-18T06:22:48;101367.10;;;21.76;22.10
37710;BME280;60223;34.854;-92.408;2022-12-18T06:25:13;101366.58;;;21.87;21.98
37710;BME280;60223;34.854;-92.408;2022-12-18T06:27:39;101365.97;;;22.11;21.96
37710;BME280;60223;34.854;-92.408;2022-12-18T06:30:07;101363.71;;;21.86;21.93
37710;BME280;60223;34.854;-92.408;2022-12-18T06:32:30;101367.56;;;21.74;21.98
37710;BME280;60223;34.854;-92.408;2022-12-18T06:34:57;101369.28;;;21.82;22.07
37710;BME280;60223;34.854;-92.408;2022-12-18T06:37:23;101370.21;;;21.60;22.03
37710;BME280;60223;34.854;-92.408;2022-12-18T06:39:49;101371.63;;;21.10;22.37
37710;BME280;60223;34.854;-92.408;2022-12-18T06:42:14;101373.32;;;20.66;22.48
37710;BME280;60223;34.854;-92.408;2022-12-18T06:44:39;101375.09;;;20.90;22.68
37710;BME280;60223;34.854;-92.408;2022-12-18T06:47:06;101373.33;;;21.71;21.97
37710;BME280;60223;34.854;-92.408;2022-12-18T06:49:32;101376.22;;;21.37;22.18
37710;BME280;60223;34.854;-92.408;2022-12-18T06:51:57;101377.03;;;21.23;22.38
37710;BME280;60223;34.854;-92.408;2022-12-18T06:54:23;101371.78;;;21.60;22.10
37710;BME280;60223;34.854;-92.408;2022-12-18T06:56:48;101370.85;;;21.90;22.21
37710;BME280;60223;34.854;-92.408;2022-12-18T06:59:15;101371.04;;;21.51;22.16
37710;BME280;60223;34.854;-92.408;2022-12-18T07:01:40;101367.16;;;21.48;22.15
37710;BME280;60223;34.854;-92.408;2022-12-18T07:04:04;101366.22;;;21.94;21.97
37710;BME280;60223;34.854;-92.408;2022-12-18T07:06:32;101363.08;;;21.85;21.83
37710;BME280;60223;34.854;-92.408;2022-12-18T07:08:57;101368.30;;;21.88;21.77
37710;BME280;60223;34.854;-92.408;2022-12-18T07:28:22;101357.77;;;21.57;22.11
37710;BME280;60223;34.854;-92.408;2022-12-18T07:30:48;101359.09;;;21.67;22.14
37710;BME280;60223;34.854;-92.408;2022-12-18T07:33:15;101357.40;;;21.54;22.34
37710;BME280;60223;34.854;-92.408;2022-12-18T07:35:41;101351.28;;;21.79;21.97
37710;BME280;60223;34.854;-92.408;2022-12-18T07:38:06;101352.89;;;21.70;21.99
37710;BME280;60223;34.854;-92.408;2022-12-18T07:40:32;101353.74;;;21.48;22.03
37710;BME280;60223;34.854;-92.408;2022-12-18T07:42:58;101352.17;;;21.61;21.90
37710;BME280;60223;34.854;-92.408;2022-12-18T07:45:23;101352.37;;;21.62;21.86
37710;BME280;60223;34.854;-92.408;2022-12-18T07:47:49;101352.43;;;22.06;21.69
37710;BME280;60223;34.854;-92.408;2022-12-18T07:50:15;101348.87;;;21.77;21.70
37710;BME280;60223;34.854;-92.408;2022-12-18T07:52:38;101347.54;;;21.79;21.64
37710;BME280;60223;34.854;-92.408;2022-12-18T07:55:07;101345.91;;;21.94;21.66
37710;BME280;60223;34.854;-92.408;2022-12-18T07:57:32;101356.94;;;21.46;21.81
37710;BME280;60223;34.854;-92.408;2022-12-18T07:59:58;101359.75;;;21.55;21.70
37710;BME280;60223;34.854;-92.408;2022-12-18T08:02:24;101363.57;;;21.30;21.86
37710;BME280;60223;34.854;-92.408;2022-12-18T08:04:49;101363.68;;;18.94;23.83
37710;BME280;60223;34.854;-92.408;2022-12-18T08:07:16;101366.75;;;21.46;22.02
37710;BME280;60223;34.854;-92.408;2022-12-18T08:09:40;101368.50;;;21.67;21.84
37710;BME280;60223;34.854;-92.408;2022-12-18T08:12:07;101371.22;;;21.27;22.14
37710;BME280;60223;34.854;-92.408;2022-12-18T08:14:33;101374.89;;;21.75;21.87
37710;BME280;60223;34.854;-92.408;2022-12-18T08:16:58;101378.07;;;21.49;21.87
37710;BME280;60223;34.854;-92.408;2022-12-18T08:19:24;101382.11;;;21.68;21.83
37710;BME280;60223;34.854;-92.408;2022-12-18T08:21:50;101384.04;;;21.57;21.78
37710;BME280;60223;34.854;-92.408;2022-12-18T08:24:16;101387.93;;;21.67;21.65
37710;BME280;60223;34.854;-92.408;2022-12-18T08:26:40;101391.51;;;21.72;21.60
37710;BME280;60223;34.854;-92.408;2022-12-18T08:29:08;101399.74;;;21.87;21.47
37710;BME280;60223;34.854;-92.408;2022-12-18T08:31:33;101408.45;;;21.64;21.58
37710;BME280;60223;34.854;-92.408;2022-12-18T08:33:59;101413.86;;;21.84;21.59
37710;BME280;60223;34.854;-92.408;2022-12-18T08:36:25;101417.01;;;21.62;21.54
37710;BME280;60223;34.854;-92.408;2022-12-18T08:38:50;101419.81;;;21.38;21.68
37710;BME280;60223;34.854;-92.408;2022-12-18T08:41:17;101422.27;;;21.61;21.66
37710;BME280;60223;34.854;-92.408;2022-12-18T08:43:42;101430.24;;;21.20;21.95
37710;BME280;60223;34.854;-92.408;2022-12-18T08:46:07;101427.12;;;20.25;22.66
37710;BME280;60223;34.854;-92.408;2022-12-18T08:48:33;101426.60;;;21.54;21.60
37710;BME280;60223;34.854;-92.408;2022-12-18T08:50:59;101429.37;;;21.55;21.72
37710;BME280;60223;34.854;-92.408;2022-12-18T08:53:25;101424.08;;;21.25;22.06
37710;BME280;60223;34.854;-92.408;2022-12-18T08:55:51;101423.76;;;21.82;21.51
37710;BME280;60223;34.854;-92.408;2022-12-18T08:58:16;101423.19;;;21.64;21.74
37710;BME280;60223;34.854;-92.408;2022-12-18T09:00:42;101420.66;;;21.69;21.72
37710;BME280;60223;34.854;-92.408;2022-12-18T09:03:10;101417.77;;;21.78;21.65
37710;BME280;60223;34.854;-92.408;2022-12-18T09:05:34;101413.64;;;21.65;21.53
37710;BME280;60223;34.854;-92.408;2022-12-18T09:08:00;101411.00;;;21.98;21.45
37710;BME280;60223;34.854;-92.408;2022-12-18T09:10:25;101406.71;;;21.95;21.42
37710;BME280;60223;34.854;-92.408;2022-12-18T09:12:48;101406.47;;;21.76;21.36
37710;BME280;60223;34.854;-92.408;2022-12-18T09:15:17;101408.64;;;21.72;21.35
37710;BME280;60223;34.854;-92.408;2022-12-18T09:17:43;101406.79;;;21.50;21.45
37710;BME280;60223;34.854;-92.408;2022-12-18T09:20:09;101408.32;;;21.50;21.60
37710;BME280;60223;34.854;-92.408;2022-12-18T09:22:33;101409.04;;;21.46;21.62
37710;BME280;60223;34.854;-92.408;2022-12-18T09:25:00;101412.63;;;18.63;23.74
37710;BME280;60223;34.854;-92.408;2022-12-18T09:27:25;101421.45;;;20.87;21.82
37710;BME280;60223;34.854;-92.408;2022-12-18T09:29:49;101425.59;;;21.41;21.61
37710;BME280;60223;34.854;-92.408;2022-12-18T09:32:17;101431.37;;;21.24;21.87
37710;BME280;60223;34.854;-92.408;2022-12-18T09:34:44;101429.26;;;21.53;21.74
37710;BME280;60223;34.854;-92.408;2022-12-18T09:37:09;101426.07;;;21.69;21.67
37710;BME280;60223;34.854;-92.408;2022-12-18T09:39:35;101428.47;;;21.68;21.57
37710;BME280;60223;34.854;-92.408;2022-12-18T09:42:01;101426.85;;;21.60;21.49
37710;BME280;60223;34.854;-92.408;2022-12-18T09:44:29;101431.93;;;21.84;21.41
37710;BME280;60223;34.854;-92.408;2022-12-18T09:46:59;101431.34;;;21.43;21.37
37710;BME280;60223;34.854;-92.408;2022-12-18T09:49:17;101431.35;;;21.87;21.36
37710;BME280;60223;34.854;-92.408;2022-12-18T09:51:47;101427.61;;;21.65;21.29
37710;BME280;60223;34.854;-92.408;2022-12-18T09:54:11;101425.47;;;21.68;21.41
37710;BME280;60223;34.854;-92.408;2022-12-18T09:56:39;101426.21;;;21.55;21.30
37710;BME280;60223;34.854;-92.408;2022-12-18T09:59:02;101425.56;;;21.66;21.36
37710;BME280;60223;34.854;-92.408;2022-12-18T10:01:27;101432.93;;;21.28;21.43
37710;BME280;60223;34.854;-92.408;2022-12-18T10:03:52;101437.56;;;20.98;21.66
37710;BME280;60223;34.854;-92.408;2022-12-18T10:06:23;101440.99;;;21.07;21.99
37710;BME280;60223;34.854;-92.408;2022-12-18T10:08:49;101439.92;;;21.51;21.54
37710;BME280;60223;34.854;-92.408;2022-12-18T10:11:21;101437.47;;;21.53;21.47
37710;BME280;60223;34.854;-92.408;2022-12-18T10:13:41;101434.53;;;21.42;21.69
37710;BME280;60223;34.854;-92.408;2022-12-18T10:16:09;101429.56;;;21.84;21.35
37710;BME280;60223;34.854;-92.408;2022-12-18T10:18:33;101435.36;;;21.52;21.52
37710;BME280;60223;34.854;-92.408;2022-12-18T10:20:56;101437.04;;;21.99;21.41
37710;BME280;60223;34.854;-92.408;2022-12-18T10:23:23;101434.69;;;21.57;21.29
37710;BME280;60223;34.854;-92.408;2022-12-18T10:25:49;101434.03;;;21.95;21.18
37710;BME280;60223;34.854;-92.408;2022-12-18T10:28:14;101429.70;;;21.94;21.16
37710;BME280;60223;34.854;-92.408;2022-12-18T10:30:32;101425.56;;;21.79;21.24
37710;BME280;60223;34.854;-92.408;2022-12-18T10:33:04;101425.02;;;21.70;21.27
37710;BME280;60223;34.854;-92.408;2022-12-18T10:35:26;101423.68;;;21.49;21.24
37710;BME280;60223;34.854;-92.408;2022-12-18T10:38:05;101423.66;;;21.40;21.24
37710;BME280;60223;34.854;-92.408;2022-12-18T10:40:19;101422.77;;;21.25;21.32
37710;BME280;60223;34.854;-92.408;2022-12-18T10:42:43;101420.22;;;21.18;21.52
37710;BME280;60223;34.854;-92.408;2022-12-18T10:45:16;101419.83;;;20.62;22.08
37710;BME280;60223;34.854;-92.408;2022-12-18T10:47:41;101419.60;;;21.47;21.26
37710;BME280;60223;34.854;-92.408;2022-12-18T10:50:00;101424.07;;;21.37;21.50
37710;BME280;60223;34.854;-92.408;2022-12-18T10:52:28;101423.69;;;21.17;21.72
37710;BME280;60223;34.854;-92.408;2022-12-18T10:54:55;101419.98;;;21.37;21.40
37710;BME280;60223;34.854;-92.408;2022-12-18T10:59:51;101425.73;;;21.75;21.25
37710;BME280;60223;34.854;-92.408;2022-12-18T11:02:24;101427.01;;;21.73;21.18
37710;BME280;60223;34.854;-92.408;2022-12-18T11:04:36;101427.13;;;21.87;21.10
37710;BME280;60223;34.854;-92.408;2022-12-18T11:07:01;101431.42;;;21.59;21.07
37710;BME280;60223;34.854;-92.408;2022-12-18T11:09:29;101434.70;;;21.86;21.04
37710;BME280;60223;34.854;-92.408;2022-12-18T11:11:54;101441.20;;;21.63;21.20
37710;BME280;60223;34.854;-92.408;2022-12-18T11:14:21;101449.76;;;21.87;21.16
37710;BME280;60223;34.854;-92.408;2022-12-18T11:16:47;101457.95;;;21.30;21.18
37710;BME280;60223;34.854;-92.408;2022-12-18T11:19:20;101458.89;;;21.29;21.31
37710;BME280;60223;34.854;-92.408;2022-12-18T11:21:42;101461.61;;;20.15;22.18
37710;BME280;60223;34.854;-92.408;2022-12-18T11:24:02;101467.80;;;20.59;22.02
37710;BME280;60223;34.854;-92.408;2022-12-18T11:26:35;101474.72;;;21.32;21.20
37710;BME280;60223;34.854;-92.408;2022-12-18T11:29:07;101473.29;;;21.28;21.42
37710;BME280;60223;34.854;-92.408;2022-12-18T11:31:24;101474.09;;;21.12;21.65
37710;BME280;60223;34.854;-92.408;2022-12-18T11:33:51;101474.70;;;21.36;21.46
37710;BME280;60223;34.854;-92.408;2022-12-18T11:36:10;101478.91;;;21.17;21.42
37710;BME280;60223;34.854;-92.408;2022-12-18T11:38:39;101482.61;;;21.69;21.16
37710;BME280;60223;34.854;-92.408;2022-12-18T11:41:05;101488.03;;;21.79;21.04
37710;BME280;60223;34.854;-92.408;2022-12-18T11:43:31;101489.58;;;22.06;21.00
37710;BME280;60223;34.854;-92.408;2022-12-18T11:45:59;101490.92;;;21.55;21.00
37710;BME280;60223;34.854;-92.408;2022-12-18T11:48:21;101489.65;;;21.88;20.88
37710;BME280;60223;34.854;-92.408;2022-12-18T11:50:49;101489.76;;;21.51;20.95
37710;BME280;60223;34.854;-92.408;2022-12-18T11:53:14;101495.37;;;21.61;21.02
37710;BME280;60223;34.854;-92.408;2022-12-18T11:55:42;101501.15;;;21.63;21.01
37710;BME280;60223;34.854;-92.408;2022-12-18T11:58:07;101504.47;;;21.42;21.11
37710;BME280;60223;34.854;-92.408;2022-12-18T12:00:28;101505.07;;;19.05;22.80
37710;BME280;60223;34.854;-92.408;2022-12-18T12:03:05;101507.92;;;21.37;21.09
37710;BME280;60223;34.854;-92.408;2022-12-18T12:05:30;101507.89;;;21.50;20.98
37710;BME280;60223;34.854;-92.408;2022-12-18T12:07:54;101510.87;;;21.51;21.31
37710;BME280;60223;34.854;-92.408;2022-12-18T12:10:24;101517.06;;;21.16;21.49
37710;BME280;60223;34.854;-92.408;2022-12-18T12:12:45;101520.40;;;21.29;21.24
37710;BME280;60223;34.854;-92.408;2022-12-18T12:15:10;101526.29;;;21.45;21.23
37710;BME280;60223;34.854;-92.408;2022-12-18T12:17:32;101534.88;;;21.70;21.04
37710;BME280;60223;34.854;-92.408;2022-12-18T12:19:56;101543.71;;;21.49;20.99
37710;BME280;60223;34.854;-92.408;2022-12-18T12:22:28;101549.70;;;21.56;20.87
37710;BME280;60223;34.854;-92.408;2022-12-18T12:24:56;101555.07;;;21.77;20.88
37710;BME280;60223;34.854;-92.408;2022-12-18T12:27:16;101555.23;;;21.61;20.92
37710;BME280;60223;34.854;-92.408;2022-12-18T12:29:46;101560.35;;;21.64;20.88
37710;BME280;60223;34.854;-92.408;2022-12-18T12:32:12;101567.10;;;21.30;20.96
37710;BME280;60223;34.854;-92.408;2022-12-18T12:34:33;101571.82;;;21.55;20.88
37710;BME280;60223;34.854;-92.408;2022-12-18T12:37:05;101575.74;;;21.20;21.14
37710;BME280;60223;34.854;-92.408;2022-12-18T12:39:23;101584.35;;;21.36;21.27
37710;BME280;60223;34.854;-92.408;2022-12-18T12:41:48;101585.87;;;21.17;21.08
37710;BME280;60223;34.854;-92.408;2022-12-18T12:44:17;101595.19;;;21.62;20.93
37710;BME280;60223;34.854;-92.408;2022-12-18T12:46:39;101593.75;;;21.15;21.31
37710;BME280;60223;34.854;-92.408;2022-12-18T12:49:08;101594.14;;;21.80;20.98
37710;BME280;60223;34.854;-92.408;2022-12-18T12:51:33;101598.03;;;21.77;21.09
37710;BME280;60223;34.854;-92.408;2022-12-18T12:53:55;101603.94;;;21.71;21.13
37710;BME280;60223;34.854;-92.408;2022-12-18T12:56:22;101604.88;;;21.54;20.85
37710;BME280;60223;34.854;-92.408;2022-12-18T12:58:53;101607.28;;;21.43;20.91
37710;BME280;60223;34.854;-92.408;2022-12-18T13:01:18;101612.10;;;21.75;20.78
37710;BME280;60223;34.854;-92.408;2022-12-18T13:03:43;101615.42;;;21.78;20.70
37710;BME280;60223;34.854;-92.408;2022-12-18T13:06:08;101621.72;;;21.31;20.82
37710;BME280;60223;34.854;-92.408;2022-12-18T13:08:31;101625.69;;;21.47;20.88
37710;BME280;60223;34.854;-92.408;2022-12-18T13:10:56;101626.48;;;21.38;20.92
37710;BME280;60223;34.854;-92.408;2022-12-18T13:13:20;101630.88;;;20.86;21.10